createdAt,value
2022-12-08T00:01:14.048Z,10.49
2022-12-08T00:03:41.007Z,10.40
2022-12-08T00:06:26.917Z,10.28
2022-12-08T00:09:11.671Z,10.02
2022-12-08T00:11:39.071Z,9.82
2022-12-08T00:14:05.485Z,9.72
2022-12-08T00:16:31.908Z,9.49
2022-12-08T00:18:58.374Z,9.35
2022-12-08T00:21:24.839Z,9.22
2022-12-08T00:23:54.408Z,9.05
2022-12-08T00:26:20.808Z,8.97
2022-12-08T00:28:47.346Z,9.03
2022-12-08T00:31:13.972Z,8.99
2022-12-08T00:33:40.533Z,8.93
2022-12-08T00:36:11.612Z,8.95
2022-12-08T00:38:39.143Z,9.03
2022-12-08T00:41:42.621Z,8.97
2022-12-08T00:44:10.002Z,8.96
2022-12-08T00:46:36.447Z,8.99
2022-12-08T00:49:03.670Z,9.05
2022-12-08T00:51:30.107Z,9.08
2022-12-08T00:53:56.506Z,9.17
2022-12-08T00:56:23.264Z,9.29
2022-12-08T00:58:49.752Z,9.29
2022-12-08T01:01:16.623Z,9.33
2022-12-08T01:03:43.561Z,9.28
2022-12-08T01:06:09.988Z,9.27
2022-12-08T01:08:37.357Z,9.27
2022-12-08T01:11:04.667Z,9.33
2022-12-08T01:13:31.117Z,9.39
2022-12-08T01:15:57.695Z,9.44
2022-12-08T01:18:24.153Z,9.46
2022-12-08T01:20:50.634Z,9.47
2022-12-08T01:23:17.053Z,9.38
2022-12-08T01:25:43.453Z,9.31
2022-12-08T01:28:09.901Z,9.25
2022-12-08T01:30:38.218Z,9.14
2022-12-08T01:33:04.950Z,9.13
2022-12-08T01:35:31.350Z,9.14
2022-12-08T01:37:57.733Z,9.17
2022-12-08T01:40:24.169Z,9.21
2022-12-08T01:42:50.614Z,9.26
2022-12-08T01:45:25.590Z,9.31
2022-12-08T01:47:55.218Z,9.37
2022-12-08T01:50:22.164Z,9.38
2022-12-08T01:52:59.819Z,9.32
2022-12-08T01:55:28.874Z,9.30
2022-12-08T01:58:21.756Z,9.24
2022-12-08T02:00:49.372Z,9.17
2022-12-08T02:03:18.600Z,9.12
2022-12-08T02:05:46.158Z,9.04
2022-12-08T02:08:13.199Z,8.95
2022-12-08T02:10:40.741Z,8.91
2022-12-08T02:13:09.347Z,8.88
2022-12-08T02:15:35.788Z,8.80
2022-12-08T02:18:37.715Z,8.78
2022-12-08T02:21:08.897Z,8.75
2022-12-08T02:23:50.545Z,8.75
2022-12-08T02:26:22.805Z,8.70
2022-12-08T02:28:55.323Z,8.73
2022-12-08T02:31:45.035Z,8.76
2022-12-08T02:34:14.382Z,8.82
2022-12-08T02:36:57.449Z,8.84
2022-12-08T02:39:37.532Z,8.88
2022-12-08T02:42:03.948Z,8.90
2022-12-08T02:44:33.273Z,8.84
2022-12-08T02:47:04.743Z,8.82
2022-12-08T02:49:32.378Z,8.78
2022-12-08T02:52:25.090Z,8.74
2022-12-08T02:54:53.530Z,8.68
2022-12-08T02:57:40.245Z,8.66
2022-12-08T03:00:13.432Z,8.56
2022-12-08T03:02:57.081Z,8.53
2022-12-08T03:05:51.856Z,8.55
2022-12-08T03:08:30.441Z,8.54
2022-12-08T03:10:57.110Z,8.58
2022-12-08T03:13:27.113Z,8.53
2022-12-08T03:15:54.783Z,8.53
2022-12-08T03:18:22.808Z,8.53
2022-12-08T03:20:50.499Z,8.50
2022-12-08T03:23:18.152Z,8.49
2022-12-08T03:25:59.771Z,8.49
2022-12-08T03:28:26.241Z,8.48
2022-12-08T03:30:55.752Z,8.50
2022-12-08T03:33:28.978Z,8.55
2022-12-08T03:35:55.715Z,8.50
2022-12-08T03:38:22.863Z,8.45
2022-12-08T03:41:09.284Z,8.32
2022-12-08T03:43:35.931Z,8.19
2022-12-08T03:46:02.462Z,8.21
2022-12-08T03:48:28.891Z,8.20
2022-12-08T03:50:55.520Z,8.19
2022-12-08T03:53:22.038Z,8.21
2022-12-08T03:55:48.455Z,8.17
2022-12-08T03:58:14.846Z,8.06
2022-12-08T04:00:41.320Z,8.06
2022-12-08T04:03:07.836Z,8.03
2022-12-08T04:05:34.373Z,8.06
2022-12-08T04:08:01.227Z,8.10
2022-12-08T04:10:27.703Z,8.11
2022-12-08T04:12:54.072Z,8.09
2022-12-08T04:15:20.499Z,8.01
2022-12-08T04:17:46.934Z,8.02
2022-12-08T04:20:13.489Z,8.02
2022-12-08T04:22:40.029Z,7.97
2022-12-08T04:25:07.087Z,7.94
2022-12-08T04:27:33.552Z,8.02
2022-12-08T04:29:59.951Z,8.02
2022-12-08T04:32:26.384Z,7.99
2022-12-08T04:34:52.893Z,7.97
2022-12-08T04:37:19.390Z,7.92
2022-12-08T04:39:45.844Z,7.93
2022-12-08T04:42:12.256Z,7.97
2022-12-08T04:44:38.653Z,7.97
2022-12-08T04:47:05.112Z,7.95
2022-12-08T04:49:31.620Z,7.83
2022-12-08T04:51:58.058Z,7.86
2022-12-08T04:54:24.457Z,7.88
2022-12-08T04:56:50.855Z,7.81
2022-12-08T04:59:17.236Z,7.84
2022-12-08T05:01:43.821Z,7.90
2022-12-08T05:04:10.319Z,7.97
2022-12-08T05:06:36.737Z,8.00
2022-12-08T05:09:03.196Z,7.98
2022-12-08T05:11:29.613Z,8.01
2022-12-08T05:13:56.119Z,7.94
2022-12-08T05:16:22.601Z,8.01
2022-12-08T05:18:49.053Z,8.04
2022-12-08T05:21:15.461Z,8.07
2022-12-08T05:23:41.928Z,8.11
2022-12-08T05:26:08.456Z,8.09
2022-12-08T05:28:43.350Z,8.09
2022-12-08T05:31:11.302Z,8.08
2022-12-08T05:33:37.801Z,8.11
2022-12-08T05:36:04.320Z,8.15
2022-12-08T05:38:30.825Z,8.15
2022-12-08T05:40:57.347Z,8.14
2022-12-08T05:43:23.783Z,8.14
2022-12-08T05:45:50.549Z,8.20
2022-12-08T05:48:17.065Z,8.18
2022-12-08T05:50:50.158Z,8.18
2022-12-08T05:53:17.660Z,8.22
2022-12-08T05:55:44.436Z,8.21
2022-12-08T05:58:13.205Z,8.21
2022-12-08T06:00:39.821Z,8.19
2022-12-08T06:03:06.357Z,8.14
2022-12-08T06:05:36.061Z,8.09
2022-12-08T06:08:02.702Z,8.12
2022-12-08T06:10:29.527Z,8.10
2022-12-08T06:12:56.039Z,8.02
2022-12-08T06:15:22.450Z,7.91
2022-12-08T06:17:48.916Z,7.87
2022-12-08T06:20:15.436Z,7.86
2022-12-08T06:22:41.856Z,7.92
2022-12-08T06:25:10.118Z,7.93
2022-12-08T06:27:36.722Z,7.97
2022-12-08T06:30:03.660Z,7.97
2022-12-08T06:32:30.433Z,7.96
2022-12-08T06:34:57.084Z,7.94
2022-12-08T06:37:23.529Z,7.94
2022-12-08T06:39:50.008Z,7.93
2022-12-08T06:42:35.333Z,7.94
2022-12-08T06:45:01.788Z,7.87
2022-12-08T06:47:28.191Z,7.90
2022-12-08T06:49:54.678Z,7.99
2022-12-08T06:52:21.093Z,8.07
2022-12-08T06:54:47.516Z,8.14
2022-12-08T06:57:13.984Z,7.99
2022-12-08T06:59:40.424Z,7.99
2022-12-08T07:02:07.261Z,8.05
2022-12-08T07:04:33.715Z,8.12
2022-12-08T07:07:00.148Z,8.13
2022-12-08T07:09:26.536Z,8.15
2022-12-08T07:11:52.961Z,8.19
2022-12-08T07:14:23.605Z,8.22
2022-12-08T07:16:50.728Z,8.25
2022-12-08T07:19:17.371Z,8.24
2022-12-08T07:21:43.797Z,8.27
2022-12-08T07:24:10.433Z,8.26
2022-12-08T07:26:36.955Z,8.35
2022-12-08T07:29:03.916Z,8.43
2022-12-08T07:31:30.370Z,8.55
2022-12-08T07:33:57.096Z,8.60
2022-12-08T07:36:23.921Z,8.62
2022-12-08T07:38:51.130Z,8.59
2022-12-08T07:41:18.466Z,8.67
2022-12-08T07:43:45.308Z,8.75
2022-12-08T07:46:12.563Z,8.83
2022-12-08T07:48:39.292Z,8.99
2022-12-08T07:51:06.139Z,9.10
2022-12-08T07:53:32.603Z,9.24
2022-12-08T07:55:59.303Z,9.34
2022-12-08T07:58:25.853Z,9.46
2022-12-08T08:00:52.649Z,9.40
2022-12-08T08:03:19.263Z,9.54
2022-12-08T08:05:48.251Z,9.63
2022-12-08T08:08:14.683Z,9.81
2022-12-08T08:10:41.192Z,10.00
2022-12-08T08:13:08.309Z,10.15
2022-12-08T08:15:35.078Z,10.13
2022-12-08T08:18:01.570Z,10.06
2022-12-08T08:20:27.962Z,10.01
2022-12-08T08:22:54.371Z,9.97
2022-12-08T08:25:22.846Z,9.99
2022-12-08T08:27:49.653Z,9.94
2022-12-08T08:30:20.324Z,10.02
2022-12-08T08:32:47.952Z,10.12
2022-12-08T08:35:14.483Z,10.25
2022-12-08T08:37:44.363Z,10.38
2022-12-08T08:40:14.963Z,10.43
2022-12-08T08:42:41.389Z,10.59
2022-12-08T08:45:08.021Z,10.84
2022-12-08T08:47:34.465Z,11.20
2022-12-08T08:50:00.905Z,11.47
2022-12-08T08:52:27.321Z,12.36
2022-12-08T08:54:53.763Z,14.47
2022-12-08T08:57:25.297Z,16.23
2022-12-08T08:59:52.358Z,17.62
2022-12-08T09:02:19.282Z,17.49
2022-12-08T09:04:46.130Z,17.19
2022-12-08T09:07:13.379Z,17.25
2022-12-08T09:09:40.245Z,17.17
2022-12-08T09:12:06.674Z,16.91
2022-12-08T09:14:33.094Z,16.32
2022-12-08T09:16:59.537Z,15.67
2022-12-08T09:19:26.038Z,15.27
2022-12-08T09:21:52.461Z,14.86
2022-12-08T09:24:18.876Z,14.67
2022-12-08T09:26:45.630Z,14.54
2022-12-08T09:29:12.207Z,14.45
2022-12-08T09:31:38.736Z,14.38
2022-12-08T09:34:05.345Z,14.23
2022-12-08T09:36:31.791Z,13.99
2022-12-08T09:38:58.399Z,13.88
2022-12-08T09:41:39.191Z,13.92
2022-12-08T09:44:21.829Z,13.99
2022-12-08T09:46:51.185Z,13.84
2022-12-08T09:49:20.950Z,13.92
2022-12-08T09:51:47.429Z,13.86
2022-12-08T09:54:22.232Z,13.90
2022-12-08T09:56:51.319Z,14.06
2022-12-08T09:59:31.627Z,14.07
2022-12-08T10:01:58.288Z,14.08
2022-12-08T10:04:24.795Z,13.97
2022-12-08T10:07:02.455Z,13.98
2022-12-08T10:09:38.773Z,14.05
2022-12-08T10:12:08.311Z,14.18
2022-12-08T10:14:41.739Z,14.35
2022-12-08T10:17:15.575Z,14.15
2022-12-08T10:19:42.474Z,14.19
2022-12-08T10:22:20.827Z,14.13
2022-12-08T10:24:53.438Z,14.11
2022-12-08T10:27:20.392Z,14.13
2022-12-08T10:29:46.827Z,14.17
2022-12-08T10:32:17.003Z,14.13
2022-12-08T10:35:18.702Z,14.15
2022-12-08T10:38:00.989Z,14.10
2022-12-08T10:40:28.417Z,13.99
2022-12-08T10:42:58.537Z,14.08
2022-12-08T10:45:27.872Z,14.17
2022-12-08T10:48:02.072Z,14.38
2022-12-08T10:50:30.548Z,14.56
2022-12-08T10:52:58.894Z,14.67
2022-12-08T10:55:25.348Z,14.80
2022-12-08T10:57:51.790Z,14.88
2022-12-08T11:00:21.185Z,14.86
2022-12-08T11:02:53.085Z,14.80
2022-12-08T11:05:20.622Z,14.85
2022-12-08T11:07:51.795Z,15.02
2022-12-08T11:10:19.156Z,15.10
2022-12-08T11:12:45.856Z,14.90
2022-12-08T11:15:18.474Z,15.12
2022-12-08T11:17:52.203Z,15.20
2022-12-08T11:20:22.965Z,15.20
2022-12-08T11:22:54.349Z,15.26
2022-12-08T11:25:22.803Z,15.42
2022-12-08T11:27:50.199Z,15.51
2022-12-08T11:30:17.126Z,15.42
2022-12-08T11:32:47.529Z,15.25
2022-12-08T11:35:18.993Z,15.33
2022-12-08T11:37:45.425Z,15.18
2022-12-08T11:40:26.223Z,14.89
2022-12-08T11:42:55.636Z,14.94
2022-12-08T11:45:26.755Z,14.75
2022-12-08T11:48:05.073Z,14.62
2022-12-08T11:50:52.090Z,14.54
2022-12-08T11:53:33.119Z,14.52
2022-12-08T11:56:01.067Z,14.49
2022-12-08T11:58:39.376Z,14.43
2022-12-08T12:01:05.838Z,14.28
2022-12-08T12:03:40.607Z,14.39
2022-12-08T12:06:23.968Z,14.45
2022-12-08T12:09:08.691Z,14.46
2022-12-08T12:12:08.393Z,14.44
2022-12-08T12:14:56.840Z,14.32
2022-12-08T12:17:43.528Z,14.34
2022-12-08T12:20:21.330Z,14.31
2022-12-08T12:22:50.149Z,14.35
2022-12-08T12:25:19.429Z,14.35
2022-12-08T12:27:46.568Z,14.35
2022-12-08T12:30:23.967Z,14.46
2022-12-08T12:32:58.418Z,14.44
2022-12-08T12:35:32.189Z,14.39
2022-12-08T12:38:01.323Z,14.36
2022-12-08T12:40:29.104Z,14.38
2022-12-08T12:42:55.593Z,14.32
2022-12-08T12:45:22.013Z,14.15
2022-12-08T12:47:58.863Z,14.17
2022-12-08T12:50:34.372Z,14.18
2022-12-08T12:53:02.384Z,14.21
2022-12-08T12:55:52.078Z,14.21
2022-12-08T12:58:27.272Z,14.26
2022-12-08T13:01:12.733Z,14.26
2022-12-08T13:03:40.756Z,14.15
2022-12-08T13:06:14.593Z,14.07
2022-12-08T13:08:50.304Z,14.02
2022-12-08T13:11:16.706Z,14.04
2022-12-08T13:14:15.610Z,13.95
2022-12-08T13:16:42.068Z,13.90
2022-12-08T13:19:15.979Z,13.82
2022-12-08T13:21:42.742Z,13.83
2022-12-08T13:24:19.766Z,13.82
2022-12-08T13:26:50.131Z,13.79
2022-12-08T13:29:26.056Z,13.69
2022-12-08T13:31:57.027Z,13.72
2022-12-08T13:34:32.772Z,13.66
2022-12-08T13:37:08.291Z,13.68
2022-12-08T13:39:40.593Z,13.64
2022-12-08T13:42:12.961Z,13.64
2022-12-08T13:53:00.038Z,13.52
2022-12-08T13:59:20.846Z,13.46
2022-12-08T14:01:48.743Z,13.43
2022-12-08T14:04:42.514Z,13.43
2022-12-08T14:07:09.522Z,13.36
2022-12-08T14:09:36.827Z,13.38
2022-12-08T14:12:20.260Z,13.34
2022-12-08T14:15:03.834Z,13.30
2022-12-08T14:17:30.961Z,13.26
2022-12-08T14:19:57.446Z,13.26
2022-12-08T14:22:24.509Z,13.23
2022-12-08T14:24:53.228Z,13.29
2022-12-08T14:27:24.054Z,13.30
2022-12-08T14:29:58.280Z,13.19
2022-12-08T14:32:44.413Z,13.21
2022-12-08T14:35:10.787Z,13.25
2022-12-08T14:37:44.607Z,13.16
2022-12-08T14:40:37.075Z,13.17
2022-12-08T14:43:09.461Z,13.20
2022-12-08T14:45:38.965Z,13.13
2022-12-08T14:48:25.318Z,13.12
2022-12-08T14:50:54.964Z,13.18
2022-12-08T14:53:21.544Z,13.15
2022-12-08T14:55:49.142Z,13.11
2022-12-08T14:58:20.633Z,13.12
2022-12-08T15:00:48.407Z,13.15
2022-12-08T15:03:16.642Z,13.11
2022-12-08T15:05:43.407Z,13.04
2022-12-08T15:08:12.801Z,13.01
2022-12-08T15:10:40.044Z,12.96
2022-12-08T15:13:19.963Z,12.99
2022-12-08T15:15:51.367Z,13.03
2022-12-08T15:18:19.828Z,13.12
2022-12-08T15:20:46.236Z,13.18
2022-12-08T15:23:32.539Z,13.11
2022-12-08T15:25:59.684Z,13.13
2022-12-08T15:28:30.012Z,13.18
2022-12-08T15:30:57.788Z,13.23
2022-12-08T15:33:24.575Z,13.22
2022-12-08T15:35:51.176Z,13.17
2022-12-08T15:38:19.672Z,13.17
2022-12-08T15:40:46.338Z,13.12
2022-12-08T15:43:12.818Z,13.04
2022-12-08T15:45:46.879Z,12.98
2022-12-08T15:48:22.519Z,13.02
2022-12-08T15:50:49.530Z,13.01
2022-12-08T15:53:16.005Z,13.04
2022-12-08T15:56:03.534Z,13.04
2022-12-08T15:58:53.704Z,12.98
2022-12-08T16:01:17.137Z,12.86
2022-12-08T16:04:25.457Z,12.86
2022-12-08T16:09:21.682Z,12.92
2022-12-08T16:12:08.814Z,12.88
2022-12-08T16:17:22.515Z,12.88
2022-12-08T16:19:49.042Z,12.80
2022-12-08T16:25:22.627Z,12.81
2022-12-08T16:28:01.412Z,12.81
2022-12-08T16:30:29.807Z,12.83
2022-12-08T16:32:56.213Z,12.80
2022-12-08T16:35:22.662Z,12.75
2022-12-08T16:37:49.100Z,12.75
2022-12-08T16:40:15.692Z,12.81
2022-12-08T16:42:46.627Z,12.83
2022-12-08T16:45:13.393Z,12.78
2022-12-08T16:47:41.289Z,12.80
2022-12-08T16:50:09.266Z,12.71
2022-12-08T16:52:35.695Z,12.64
2022-12-08T16:55:02.418Z,12.61
2022-12-08T16:57:29.137Z,12.69
2022-12-08T16:59:55.900Z,12.71
2022-12-08T17:02:22.387Z,12.67
2022-12-08T17:04:49.001Z,12.69
2022-12-08T17:07:16.312Z,12.71
2022-12-08T17:09:43.064Z,12.71
2022-12-08T17:12:10.660Z,12.63
2022-12-08T17:14:37.110Z,12.63
2022-12-08T17:17:03.764Z,12.59
2022-12-08T17:19:30.228Z,12.61
2022-12-08T17:21:56.671Z,12.62
2022-12-08T17:24:25.036Z,12.56
2022-12-08T17:26:52.900Z,12.43
2022-12-08T17:29:19.342Z,12.47
2022-12-08T17:31:46.413Z,12.47
2022-12-08T17:34:12.883Z,12.44
2022-12-08T17:36:39.623Z,12.42
2022-12-08T17:39:09.249Z,12.40
2022-12-08T17:41:37.461Z,12.39
2022-12-08T17:44:09.599Z,12.42
2022-12-08T17:46:41.615Z,12.34
2022-12-08T17:49:16.005Z,12.35
2022-12-08T17:51:42.582Z,12.40
2022-12-08T17:54:09.198Z,12.36
2022-12-08T17:56:35.656Z,12.37
2022-12-08T17:59:02.605Z,12.31
2022-12-08T18:01:29.127Z,12.32
2022-12-08T18:03:55.673Z,12.31
2022-12-08T18:06:25.621Z,12.30
2022-12-08T18:08:53.373Z,12.30
2022-12-08T18:11:19.870Z,12.32
2022-12-08T18:13:50.690Z,12.36
2022-12-08T18:16:18.195Z,12.31
2022-12-08T18:18:44.656Z,12.37
2022-12-08T18:21:11.606Z,12.38
2022-12-08T18:23:39.187Z,12.33
2022-12-08T18:26:06.597Z,12.38
2022-12-08T18:28:33.278Z,12.42
2022-12-08T18:30:59.713Z,12.48
2022-12-08T18:33:26.222Z,12.51
2022-12-08T18:35:52.664Z,12.48
2022-12-08T18:38:19.414Z,12.46
2022-12-08T18:40:45.807Z,12.45
2022-12-08T18:43:12.336Z,12.44
2022-12-08T18:45:39.757Z,12.45
2022-12-08T18:48:06.731Z,12.40
2022-12-08T18:50:33.126Z,12.41
2022-12-08T18:52:59.605Z,12.37
2022-12-08T18:55:26.052Z,12.40
2022-12-08T18:57:52.513Z,12.47
2022-12-08T19:00:19.668Z,12.32
2022-12-08T19:02:46.200Z,12.31
2022-12-08T19:05:13.597Z,12.33
2022-12-08T19:07:40.262Z,12.35
2022-12-08T19:10:07.301Z,12.15
2022-12-08T19:12:34.063Z,12.13
2022-12-08T19:15:00.715Z,12.13
2022-12-08T19:17:27.297Z,12.17
2022-12-08T19:19:53.779Z,12.10
2022-12-08T19:22:20.174Z,12.06
2022-12-08T19:24:46.613Z,12.10
2022-12-08T19:27:13.042Z,12.04
2022-12-08T19:29:39.486Z,12.06
2022-12-08T19:32:05.992Z,12.14
2022-12-08T19:34:32.486Z,12.13
2022-12-08T19:36:59.015Z,12.14
2022-12-08T19:39:43.866Z,12.11
2022-12-08T19:42:32.858Z,12.05
2022-12-08T19:45:01.266Z,11.99
2022-12-08T19:47:27.879Z,11.93
2022-12-08T19:50:15.191Z,12.00
2022-12-08T19:52:42.083Z,12.07
2022-12-08T19:55:08.717Z,12.17
2022-12-08T19:57:35.114Z,12.18
2022-12-08T20:00:01.745Z,12.28
2022-12-08T20:02:29.387Z,12.28
2022-12-08T20:04:56.039Z,12.34
2022-12-08T20:07:22.477Z,12.38
2022-12-08T20:09:48.924Z,12.37
2022-12-08T20:12:15.354Z,12.41
2022-12-08T20:14:45.879Z,12.42
2022-12-08T20:17:12.703Z,12.38
2022-12-08T20:19:39.279Z,12.39
2022-12-08T20:22:05.682Z,12.39
2022-12-08T20:24:32.134Z,12.44
2022-12-08T20:26:58.626Z,12.51
2022-12-08T20:29:25.124Z,12.56
2022-12-08T20:31:51.736Z,12.56
2022-12-08T20:34:18.956Z,12.60
2022-12-08T20:36:45.956Z,12.58
2022-12-08T20:39:13.878Z,12.62
2022-12-08T20:41:44.361Z,12.61
2022-12-08T20:44:11.096Z,12.57
2022-12-08T20:46:37.819Z,12.54
2022-12-08T20:49:04.611Z,12.41
2022-12-08T20:51:32.273Z,12.45
2022-12-08T20:53:59.541Z,12.51
2022-12-08T20:56:26.759Z,12.45
2022-12-08T20:58:53.652Z,12.52
2022-12-08T21:01:21.746Z,12.53
2022-12-08T21:03:48.994Z,12.51
2022-12-08T21:06:16.060Z,12.54
2022-12-08T21:08:42.914Z,12.52
2022-12-08T21:11:10.328Z,12.57
2022-12-08T21:13:37.388Z,12.57
2022-12-08T21:16:04.917Z,12.54
2022-12-08T21:18:37.459Z,12.60
2022-12-08T21:21:07.223Z,12.58
2022-12-08T21:23:33.719Z,12.54
2022-12-08T21:26:00.321Z,12.55
2022-12-08T21:28:26.793Z,12.63
2022-12-08T21:30:53.356Z,12.63
2022-12-08T21:33:19.968Z,12.63
2022-12-08T21:35:46.901Z,12.68
2022-12-08T21:38:13.640Z,12.63
2022-12-08T21:40:40.053Z,12.68
2022-12-08T21:43:06.712Z,12.58
2022-12-08T21:45:33.570Z,12.59
2022-12-08T21:48:04.351Z,12.54
2022-12-08T21:50:33.903Z,12.60
2022-12-08T21:53:00.503Z,12.51
2022-12-08T21:55:27.057Z,12.48
2022-12-08T21:57:53.753Z,12.41
2022-12-08T22:00:20.705Z,12.41
2022-12-08T22:02:47.299Z,12.32
2022-12-08T22:05:14.302Z,12.30
2022-12-08T22:07:41.371Z,12.23
2022-12-08T22:10:09.082Z,12.24
2022-12-08T22:12:36.462Z,12.25
2022-12-08T22:15:05.704Z,12.22
2022-12-08T22:17:35.559Z,12.24
2022-12-08T22:20:02.546Z,12.28
2022-12-08T22:22:29.201Z,12.25
2022-12-08T22:24:55.760Z,12.28
2022-12-08T22:27:22.173Z,12.24
2022-12-08T22:29:48.749Z,12.22
2022-12-08T22:32:15.309Z,12.27
2022-12-08T22:34:41.724Z,12.25
2022-12-08T22:37:08.197Z,12.33
2022-12-08T22:39:35.777Z,12.35
2022-12-08T22:42:02.570Z,12.35
2022-12-08T22:44:29.267Z,12.31
2022-12-08T22:46:56.635Z,12.38
2022-12-08T22:49:24.291Z,12.40
2022-12-08T22:51:51.186Z,12.47
2022-12-08T22:54:17.976Z,12.46
2022-12-08T22:56:44.566Z,12.50
2022-12-08T22:59:10.964Z,12.48
2022-12-08T23:01:37.437Z,12.46
2022-12-08T23:04:04.086Z,12.53
2022-12-08T23:06:31.643Z,12.48
2022-12-08T23:08:59.250Z,12.49
2022-12-08T23:11:27.699Z,12.45
2022-12-08T23:13:55.988Z,12.52
2022-12-08T23:16:22.616Z,12.50
2022-12-08T23:18:49.049Z,12.51
2022-12-08T23:21:17.223Z,12.49
2022-12-08T23:23:43.887Z,12.54
2022-12-08T23:26:18.057Z,12.41
2022-12-08T23:28:44.560Z,12.45
2022-12-08T23:31:11.295Z,12.46
2022-12-08T23:33:37.869Z,12.44
2022-12-08T23:36:04.450Z,12.46
2022-12-08T23:38:30.911Z,12.47
2022-12-08T23:41:00.605Z,12.46
2022-12-08T23:43:27.114Z,12.31
2022-12-08T23:45:53.618Z,12.30
2022-12-08T23:48:20.457Z,12.19
2022-12-08T23:50:47.094Z,12.20
2022-12-08T23:53:13.539Z,12.22
2022-12-08T23:55:40.133Z,12.23
2022-12-08T23:58:06.528Z,12.18
